sensor_id;sensor_type;location;lat;lon;timestamp;P1;durP1;ratioP1;P2;durP2;ratioP2
6985;SDS011;3533;51.246;6.850;2023-08-20T00:00:27;3.27;;;3.07;;
6985;SDS011;3533;51.246;6.850;2023-08-20T00:02:55;3.23;;;3.03;;
6985;SDS011;3533;51.246;6.850;2023-08-20T00:05:28;3.33;;;3.13;;
6985;SDS011;3533;51.246;6.850;2023-08-20T00:07:54;3.07;;;2.97;;
6985;SDS011;3533;51.246;6.850;2023-08-20T00:10:19;3.90;;;3.17;;
6985;SDS011;3533;51.246;6.850;2023-08-20T00:12:45;3.40;;;3.20;;
6985;SDS011;3533;51.246;6.850;2023-08-20T00:15:10;3.40;;;3.20;;
6985;SDS011;3533;51.246;6.850;2023-08-20T00:17:37;3.40;;;3.30;;
6985;SDS011;3533;51.246;6.850;2023-08-20T00:20:05;3.20;;;3.00;;
6985;SDS011;3533;51.246;6.850;2023-08-20T00:22:38;2.70;;;2.60;;
6985;SDS011;3533;51.246;6.850;2023-08-20T00:25:04;3.23;;;3.03;;
6985;SDS011;3533;51.246;6.850;2023-08-20T00:27:30;2.80;;;2.70;;
6985;SDS011;3533;51.246;6.850;2023-08-20T00:29:57;3.10;;;2.90;;
6985;SDS011;3533;51.246;6.850;2023-08-20T00:32:22;3.40;;;3.20;;
6985;SDS011;3533;51.246;6.850;2023-08-20T00:34:48;3.27;;;3.07;;
6985;SDS011;3533;51.246;6.850;2023-08-20T00:37:13;4.20;;;3.97;;
6985;SDS011;3533;51.246;6.850;2023-08-20T00:39:39;3.33;;;3.13;;
6985;SDS011;3533;51.246;6.850;2023-08-20T00:42:05;3.03;;;2.93;;
6985;SDS011;3533;51.246;6.850;2023-08-20T00:44:32;3.97;;;3.77;;
6985;SDS011;3533;51.246;6.850;2023-08-20T00:46:58;3.40;;;3.20;;
6985;SDS011;3533;51.246;6.850;2023-08-20T00:49:25;3.43;;;3.23;;
6985;SDS011;3533;51.246;6.850;2023-08-20T00:51:51;3.23;;;3.03;;
6985;SDS011;3533;51.246;6.850;2023-08-20T00:54:18;3.10;;;3.00;;
6985;SDS011;3533;51.246;6.850;2023-08-20T00:56:45;3.93;;;3.73;;
6985;SDS011;3533;51.246;6.850;2023-08-20T00:59:12;2.80;;;2.70;;
6985;SDS011;3533;51.246;6.850;2023-08-20T01:01:38;3.20;;;3.00;;
6985;SDS011;3533;51.246;6.850;2023-08-20T01:04:04;3.30;;;3.10;;
6985;SDS011;3533;51.246;6.850;2023-08-20T01:06:51;3.40;;;3.20;;
6985;SDS011;3533;51.246;6.850;2023-08-20T01:09:40;2.73;;;2.63;;
6985;SDS011;3533;51.246;6.850;2023-08-20T01:12:08;3.50;;;3.30;;
6985;SDS011;3533;51.246;6.850;2023-08-20T01:14:35;3.00;;;2.90;;
6985;SDS011;3533;51.246;6.850;2023-08-20T01:17:00;3.30;;;3.10;;
6985;SDS011;3533;51.246;6.850;2023-08-20T01:19:27;3.40;;;3.30;;
6985;SDS011;3533;51.246;6.850;2023-08-20T01:30:18;3.43;;;3.23;;
6985;SDS011;3533;51.246;6.850;2023-08-20T01:32:47;3.20;;;3.00;;
6985;SDS011;3533;51.246;6.850;2023-08-20T01:35:15;3.40;;;3.20;;
6985;SDS011;3533;51.246;6.850;2023-08-20T01:37:42;2.83;;;2.73;;
6985;SDS011;3533;51.246;6.850;2023-08-20T01:40:07;3.17;;;2.97;;
6985;SDS011;3533;51.246;6.850;2023-08-20T01:42:35;3.40;;;3.20;;
6985;SDS011;3533;51.246;6.850;2023-08-20T01:45:04;3.23;;;3.03;;
6985;SDS011;3533;51.246;6.850;2023-08-20T01:47:31;3.60;;;3.40;;
6985;SDS011;3533;51.246;6.850;2023-08-20T01:49:56;3.70;;;3.50;;
6985;SDS011;3533;51.246;6.850;2023-08-20T01:52:22;3.20;;;3.00;;
6985;SDS011;3533;51.246;6.850;2023-08-20T01:54:48;3.17;;;3.00;;
6985;SDS011;3533;51.246;6.850;2023-08-20T01:57:14;3.20;;;3.00;;
6985;SDS011;3533;51.246;6.850;2023-08-20T01:59:39;3.83;;;3.63;;
6985;SDS011;3533;51.246;6.850;2023-08-20T02:02:05;2.93;;;2.77;;
6985;SDS011;3533;51.246;6.850;2023-08-20T02:04:31;3.27;;;3.17;;
6985;SDS011;3533;51.246;6.850;2023-08-20T02:06:57;3.47;;;3.27;;
6985;SDS011;3533;51.246;6.850;2023-08-20T02:09:23;3.20;;;3.00;;
6985;SDS011;3533;51.246;6.850;2023-08-20T02:11:49;3.30;;;3.10;;
6985;SDS011;3533;51.246;6.850;2023-08-20T02:14:15;2.83;;;2.73;;
6985;SDS011;3533;51.246;6.850;2023-08-20T02:16:40;3.00;;;2.90;;
6985;SDS011;3533;51.246;6.850;2023-08-20T02:19:06;3.50;;;3.30;;
6985;SDS011;3533;51.246;6.850;2023-08-20T02:21:32;3.40;;;3.20;;
6985;SDS011;3533;51.246;6.850;2023-08-20T02:23:58;3.27;;;3.07;;
6985;SDS011;3533;51.246;6.850;2023-08-20T02:26:23;2.80;;;2.70;;
6985;SDS011;3533;51.246;6.850;2023-08-20T02:28:49;3.67;;;3.37;;
6985;SDS011;3533;51.246;6.850;2023-08-20T02:31:14;3.10;;;2.90;;
6985;SDS011;3533;51.246;6.850;2023-08-20T02:33:40;3.27;;;3.07;;
6985;SDS011;3533;51.246;6.850;2023-08-20T02:36:06;3.40;;;3.20;;
6985;SDS011;3533;51.246;6.850;2023-08-20T02:38:31;3.63;;;3.43;;
6985;SDS011;3533;51.246;6.850;2023-08-20T02:40:57;4.27;;;4.07;;
6985;SDS011;3533;51.246;6.850;2023-08-20T02:43:22;4.47;;;3.30;;
6985;SDS011;3533;51.246;6.850;2023-08-20T02:45:48;3.10;;;3.00;;
6985;SDS011;3533;51.246;6.850;2023-08-20T02:48:14;3.67;;;3.47;;
6985;SDS011;3533;51.246;6.850;2023-08-20T02:50:40;3.60;;;3.40;;
6985;SDS011;3533;51.246;6.850;2023-08-20T02:53:05;3.53;;;3.33;;
6985;SDS011;3533;51.246;6.850;2023-08-20T02:55:32;2.93;;;2.83;;
6985;SDS011;3533;51.246;6.850;2023-08-20T02:57:58;3.23;;;3.03;;
6985;SDS011;3533;51.246;6.850;2023-08-20T03:00:23;3.03;;;2.87;;
6985;SDS011;3533;51.246;6.850;2023-08-20T03:02:49;3.10;;;2.90;;
6985;SDS011;3533;51.246;6.850;2023-08-20T03:05:14;3.10;;;2.90;;
6985;SDS011;3533;51.246;6.850;2023-08-20T03:07:40;3.20;;;3.00;;
6985;SDS011;3533;51.246;6.850;2023-08-20T03:10:06;3.50;;;3.30;;
6985;SDS011;3533;51.246;6.850;2023-08-20T03:12:32;3.43;;;3.33;;
6985;SDS011;3533;51.246;6.850;2023-08-20T03:14:58;2.90;;;2.80;;
6985;SDS011;3533;51.246;6.850;2023-08-20T03:17:24;2.90;;;2.80;;
6985;SDS011;3533;51.246;6.850;2023-08-20T03:19:57;3.23;;;2.90;;
6985;SDS011;3533;51.246;6.850;2023-08-20T03:22:24;3.20;;;3.10;;
6985;SDS011;3533;51.246;6.850;2023-08-20T03:24:50;3.13;;;3.03;;
6985;SDS011;3533;51.246;6.850;2023-08-20T03:27:17;3.27;;;3.07;;
6985;SDS011;3533;51.246;6.850;2023-08-20T03:29:43;3.03;;;2.83;;
6985;SDS011;3533;51.246;6.850;2023-08-20T03:32:09;2.90;;;2.70;;
6985;SDS011;3533;51.246;6.850;2023-08-20T03:34:34;3.30;;;3.10;;
6985;SDS011;3533;51.246;6.850;2023-08-20T03:37:00;3.73;;;3.53;;
6985;SDS011;3533;51.246;6.850;2023-08-20T03:39:26;3.27;;;3.07;;
6985;SDS011;3533;51.246;6.850;2023-08-20T03:41:52;2.57;;;2.47;;
6985;SDS011;3533;51.246;6.850;2023-08-20T03:44:17;3.20;;;3.00;;
6985;SDS011;3533;51.246;6.850;2023-08-20T03:46:43;3.83;;;3.50;;
6985;SDS011;3533;51.246;6.850;2023-08-20T03:49:09;3.00;;;2.80;;
6985;SDS011;3533;51.246;6.850;2023-08-20T03:51:35;3.03;;;2.80;;
6985;SDS011;3533;51.246;6.850;2023-08-20T03:54:00;3.03;;;2.93;;
6985;SDS011;3533;51.246;6.850;2023-08-20T03:56:26;2.73;;;2.63;;
6985;SDS011;3533;51.246;6.850;2023-08-20T03:58:51;2.90;;;2.80;;
6985;SDS011;3533;51.246;6.850;2023-08-20T04:01:18;3.37;;;3.17;;
6985;SDS011;3533;51.246;6.850;2023-08-20T04:03:45;3.47;;;3.27;;
6985;SDS011;3533;51.246;6.850;2023-08-20T04:06:11;3.20;;;3.00;;
6985;SDS011;3533;51.246;6.850;2023-08-20T04:08:36;3.50;;;3.20;;
6985;SDS011;3533;51.246;6.850;2023-08-20T04:11:02;3.10;;;2.90;;
6985;SDS011;3533;51.246;6.850;2023-08-20T04:13:28;3.30;;;3.10;;
6985;SDS011;3533;51.246;6.850;2023-08-20T04:15:54;3.67;;;3.47;;
6985;SDS011;3533;51.246;6.850;2023-08-20T04:18:20;3.13;;;2.93;;
6985;SDS011;3533;51.246;6.850;2023-08-20T04:20:45;3.13;;;2.93;;
6985;SDS011;3533;51.246;6.850;2023-08-20T04:23:11;2.87;;;2.77;;
6985;SDS011;3533;51.246;6.850;2023-08-20T04:25:36;2.40;;;2.30;;
6985;SDS011;3533;51.246;6.850;2023-08-20T04:28:02;3.27;;;3.07;;
6985;SDS011;3533;51.246;6.850;2023-08-20T04:30:28;3.07;;;2.97;;
6985;SDS011;3533;51.246;6.850;2023-08-20T04:32:53;3.37;;;3.17;;
6985;SDS011;3533;51.246;6.850;2023-08-20T04:35:19;2.70;;;2.60;;
6985;SDS011;3533;51.246;6.850;2023-08-20T04:37:45;3.33;;;3.13;;
6985;SDS011;3533;51.246;6.850;2023-08-20T04:40:11;3.07;;;2.87;;
6985;SDS011;3533;51.246;6.850;2023-08-20T04:42:37;3.17;;;2.97;;
6985;SDS011;3533;51.246;6.850;2023-08-20T04:45:03;3.27;;;3.03;;
6985;SDS011;3533;51.246;6.850;2023-08-20T04:47:29;3.30;;;3.10;;
6985;SDS011;3533;51.246;6.850;2023-08-20T04:49:54;3.50;;;3.30;;
6985;SDS011;3533;51.246;6.850;2023-08-20T04:52:20;4.07;;;3.87;;
6985;SDS011;3533;51.246;6.850;2023-08-20T04:54:46;4.10;;;3.80;;
6985;SDS011;3533;51.246;6.850;2023-08-20T04:57:12;3.67;;;3.47;;
6985;SDS011;3533;51.246;6.850;2023-08-20T04:59:37;4.30;;;4.10;;
6985;SDS011;3533;51.246;6.850;2023-08-20T05:02:03;3.33;;;3.13;;
6985;SDS011;3533;51.246;6.850;2023-08-20T05:04:29;3.60;;;3.40;;
6985;SDS011;3533;51.246;6.850;2023-08-20T05:06:54;4.00;;;3.80;;
6985;SDS011;3533;51.246;6.850;2023-08-20T05:09:20;3.50;;;3.30;;
6985;SDS011;3533;51.246;6.850;2023-08-20T05:11:46;4.17;;;3.97;;
6985;SDS011;3533;51.246;6.850;2023-08-20T05:14:12;4.00;;;3.77;;
6985;SDS011;3533;51.246;6.850;2023-08-20T05:16:37;3.53;;;3.33;;
6985;SDS011;3533;51.246;6.850;2023-08-20T05:19:03;4.80;;;4.40;;
6985;SDS011;3533;51.246;6.850;2023-08-20T05:21:28;3.60;;;3.40;;
6985;SDS011;3533;51.246;6.850;2023-08-20T05:23:54;3.83;;;3.50;;
6985;SDS011;3533;51.246;6.850;2023-08-20T05:26:19;4.00;;;3.70;;
6985;SDS011;3533;51.246;6.850;2023-08-20T05:28:46;3.97;;;3.77;;
6985;SDS011;3533;51.246;6.850;2023-08-20T05:31:12;4.17;;;3.97;;
6985;SDS011;3533;51.246;6.850;2023-08-20T05:33:37;4.20;;;3.93;;
6985;SDS011;3533;51.246;6.850;2023-08-20T05:36:03;4.50;;;3.90;;
6985;SDS011;3533;51.246;6.850;2023-08-20T05:38:29;3.80;;;3.57;;
6985;SDS011;3533;51.246;6.850;2023-08-20T05:40:54;4.50;;;4.20;;
6985;SDS011;3533;51.246;6.850;2023-08-20T05:43:20;4.20;;;4.00;;
6985;SDS011;3533;51.246;6.850;2023-08-20T05:45:45;4.30;;;4.00;;
6985;SDS011;3533;51.246;6.850;2023-08-20T05:48:11;3.73;;;3.53;;
6985;SDS011;3533;51.246;6.850;2023-08-20T05:50:36;3.90;;;3.70;;
6985;SDS011;3533;51.246;6.850;2023-08-20T05:53:02;4.10;;;3.80;;
6985;SDS011;3533;51.246;6.850;2023-08-20T05:55:27;4.07;;;3.87;;
6985;SDS011;3533;51.246;6.850;2023-08-20T05:57:53;4.07;;;3.87;;
6985;SDS011;3533;51.246;6.850;2023-08-20T06:00:18;4.00;;;3.80;;
6985;SDS011;3533;51.246;6.850;2023-08-20T06:02:44;4.57;;;4.27;;
6985;SDS011;3533;51.246;6.850;2023-08-20T06:05:09;4.80;;;3.50;;
6985;SDS011;3533;51.246;6.850;2023-08-20T06:07:35;3.90;;;3.70;;
6985;SDS011;3533;51.246;6.850;2023-08-20T06:10:01;4.20;;;3.90;;
6985;SDS011;3533;51.246;6.850;2023-08-20T06:12:26;3.77;;;3.47;;
6985;SDS011;3533;51.246;6.850;2023-08-20T06:14:52;4.30;;;4.00;;
6985;SDS011;3533;51.246;6.850;2023-08-20T06:17:17;3.57;;;3.37;;
6985;SDS011;3533;51.246;6.850;2023-08-20T06:19:44;3.70;;;3.40;;
6985;SDS011;3533;51.246;6.850;2023-08-20T06:22:09;3.53;;;3.33;;
6985;SDS011;3533;51.246;6.850;2023-08-20T06:24:35;3.93;;;3.63;;
6985;SDS011;3533;51.246;6.850;2023-08-20T06:27:01;4.87;;;4.47;;
6985;SDS011;3533;51.246;6.850;2023-08-20T06:29:26;3.83;;;3.63;;
6985;SDS011;3533;51.246;6.850;2023-08-20T06:31:52;4.73;;;4.50;;
6985;SDS011;3533;51.246;6.850;2023-08-20T06:34:17;3.50;;;3.30;;
6985;SDS011;3533;51.246;6.850;2023-08-20T06:36:43;3.90;;;3.60;;
6985;SDS011;3533;51.246;6.850;2023-08-20T06:39:09;3.60;;;3.40;;
6985;SDS011;3533;51.246;6.850;2023-08-20T06:41:34;3.60;;;3.40;;
6985;SDS011;3533;51.246;6.850;2023-08-20T06:44:00;4.67;;;4.27;;
6985;SDS011;3533;51.246;6.850;2023-08-20T06:46:26;5.60;;;4.10;;
6985;SDS011;3533;51.246;6.850;2023-08-20T06:48:52;4.20;;;4.00;;
6985;SDS011;3533;51.246;6.850;2023-08-20T06:51:21;4.03;;;3.80;;
6985;SDS011;3533;51.246;6.850;2023-08-20T06:53:47;4.67;;;4.37;;
6985;SDS011;3533;51.246;6.850;2023-08-20T06:56:14;4.43;;;4.03;;
6985;SDS011;3533;51.246;6.850;2023-08-20T06:58:40;4.97;;;4.57;;
6985;SDS011;3533;51.246;6.850;2023-08-20T07:01:06;6.27;;;5.20;;
6985;SDS011;3533;51.246;6.850;2023-08-20T07:03:33;6.80;;;4.80;;
6985;SDS011;3533;51.246;6.850;2023-08-20T07:06:00;5.70;;;5.30;;
6985;SDS011;3533;51.246;6.850;2023-08-20T07:08:26;5.77;;;5.27;;
6985;SDS011;3533;51.246;6.850;2023-08-20T07:10:51;6.50;;;5.90;;
6985;SDS011;3533;51.246;6.850;2023-08-20T07:13:17;6.10;;;5.70;;
6985;SDS011;3533;51.246;6.850;2023-08-20T07:15:42;5.27;;;4.97;;
6985;SDS011;3533;51.246;6.850;2023-08-20T07:18:08;5.60;;;5.10;;
6985;SDS011;3533;51.246;6.850;2023-08-20T07:20:33;5.93;;;5.53;;
6985;SDS011;3533;51.246;6.850;2023-08-20T07:22:59;6.23;;;5.83;;
6985;SDS011;3533;51.246;6.850;2023-08-20T07:25:24;5.57;;;5.23;;
6985;SDS011;3533;51.246;6.850;2023-08-20T07:27:50;5.53;;;5.10;;
6985;SDS011;3533;51.246;6.850;2023-08-20T07:30:16;4.63;;;4.33;;
6985;SDS011;3533;51.246;6.850;2023-08-20T07:32:41;6.87;;;6.00;;
6985;SDS011;3533;51.246;6.850;2023-08-20T07:35:07;6.03;;;5.63;;
6985;SDS011;3533;51.246;6.850;2023-08-20T07:37:33;6.20;;;5.67;;
6985;SDS011;3533;51.246;6.850;2023-08-20T07:39:59;5.10;;;4.40;;
6985;SDS011;3533;51.246;6.850;2023-08-20T07:42:24;5.27;;;4.83;;
6985;SDS011;3533;51.246;6.850;2023-08-20T07:44:50;4.53;;;4.23;;
6985;SDS011;3533;51.246;6.850;2023-08-20T07:47:15;4.80;;;4.27;;
6985;SDS011;3533;51.246;6.850;2023-08-20T07:49:41;5.40;;;5.00;;
6985;SDS011;3533;51.246;6.850;2023-08-20T07:52:06;4.40;;;4.20;;
6985;SDS011;3533;51.246;6.850;2023-08-20T07:54:32;5.20;;;4.77;;
6985;SDS011;3533;51.246;6.850;2023-08-20T07:56:57;4.50;;;4.20;;
6985;SDS011;3533;51.246;6.850;2023-08-20T07:59:23;4.27;;;4.00;;
6985;SDS011;3533;51.246;6.850;2023-08-20T08:01:48;3.83;;;3.63;;
6985;SDS011;3533;51.246;6.850;2023-08-20T08:04:14;4.27;;;3.97;;
6985;SDS011;3533;51.246;6.850;2023-08-20T08:06:40;5.17;;;4.40;;
6985;SDS011;3533;51.246;6.850;2023-08-20T08:09:18;4.30;;;4.10;;
6985;SDS011;3533;51.246;6.850;2023-08-20T08:11:51;5.53;;;5.23;;
6985;SDS011;3533;51.246;6.850;2023-08-20T08:14:17;5.50;;;5.10;;
6985;SDS011;3533;51.246;6.850;2023-08-20T08:16:43;5.13;;;4.83;;
6985;SDS011;3533;51.246;6.850;2023-08-20T08:19:11;5.97;;;5.57;;
6985;SDS011;3533;51.246;6.850;2023-08-20T08:21:37;5.03;;;4.73;;
6985;SDS011;3533;51.246;6.850;2023-08-20T08:24:03;4.53;;;4.33;;
6985;SDS011;3533;51.246;6.850;2023-08-20T08:26:30;12.43;;;5.70;;
6985;SDS011;3533;51.246;6.850;2023-08-20T08:28:56;5.57;;;4.93;;
6985;SDS011;3533;51.246;6.850;2023-08-20T08:31:22;3.90;;;3.70;;
6985;SDS011;3533;51.246;6.850;2023-08-20T08:33:48;4.10;;;3.70;;
6985;SDS011;3533;51.246;6.850;2023-08-20T08:36:13;4.90;;;3.80;;
6985;SDS011;3533;51.246;6.850;2023-08-20T08:38:41;4.50;;;4.23;;
6985;SDS011;3533;51.246;6.850;2023-08-20T08:41:10;4.23;;;3.93;;
6985;SDS011;3533;51.246;6.850;2023-08-20T08:43:38;5.20;;;4.63;;
6985;SDS011;3533;51.246;6.850;2023-08-20T08:46:08;4.33;;;4.03;;
6985;SDS011;3533;51.246;6.850;2023-08-20T08:48:39;4.37;;;4.10;;
6985;SDS011;3533;51.246;6.850;2023-08-20T08:51:06;4.47;;;4.17;;
6985;SDS011;3533;51.246;6.850;2023-08-20T08:53:32;3.97;;;3.67;;
6985;SDS011;3533;51.246;6.850;2023-08-20T08:55:58;4.20;;;4.00;;
6985;SDS011;3533;51.246;6.850;2023-08-20T08:58:25;4.27;;;4.00;;
6985;SDS011;3533;51.246;6.850;2023-08-20T09:00:50;3.97;;;3.77;;
6985;SDS011;3533;51.246;6.850;2023-08-20T09:03:16;4.20;;;4.00;;
6985;SDS011;3533;51.246;6.850;2023-08-20T09:06:00;4.73;;;4.30;;
6985;SDS011;3533;51.246;6.850;2023-08-20T09:08:31;4.23;;;4.03;;
6985;SDS011;3533;51.246;6.850;2023-08-20T09:10:59;4.20;;;4.00;;
6985;SDS011;3533;51.246;6.850;2023-08-20T09:13:38;4.63;;;4.43;;
6985;SDS011;3533;51.246;6.850;2023-08-20T09:16:06;4.70;;;4.27;;
6985;SDS011;3533;51.246;6.850;2023-08-20T09:18:39;4.30;;;4.10;;
6985;SDS011;3533;51.246;6.850;2023-08-20T09:21:08;4.37;;;4.17;;
6985;SDS011;3533;51.246;6.850;2023-08-20T09:23:35;3.97;;;3.77;;
6985;SDS011;3533;51.246;6.850;2023-08-20T09:26:02;5.57;;;5.17;;
6985;SDS011;3533;51.246;6.850;2023-08-20T09:28:29;3.90;;;3.70;;
6985;SDS011;3533;51.246;6.850;2023-08-20T09:31:15;5.67;;;4.17;;
6985;SDS011;3533;51.246;6.850;2023-08-20T09:33:50;4.03;;;3.83;;
6985;SDS011;3533;51.246;6.850;2023-08-20T09:36:17;5.10;;;4.80;;
6985;SDS011;3533;51.246;6.850;2023-08-20T09:38:43;4.40;;;4.10;;
6985;SDS011;3533;51.246;6.850;2023-08-20T09:41:09;5.20;;;4.80;;
6985;SDS011;3533;51.246;6.850;2023-08-20T09:43:37;4.20;;;4.00;;
6985;SDS011;3533;51.246;6.850;2023-08-20T09:46:04;4.80;;;4.60;;
6985;SDS011;3533;51.246;6.850;2023-08-20T09:48:33;4.67;;;4.40;;
6985;SDS011;3533;51.246;6.850;2023-08-20T09:51:07;4.50;;;4.20;;
6985;SDS011;3533;51.246;6.850;2023-08-20T09:53:37;4.57;;;4.37;;
6985;SDS011;3533;51.246;6.850;2023-08-20T09:56:10;4.80;;;4.50;;
6985;SDS011;3533;51.246;6.850;2023-08-20T09:58:46;4.33;;;4.13;;
6985;SDS011;3533;51.246;6.850;2023-08-20T10:01:14;4.97;;;4.77;;
6985;SDS011;3533;51.246;6.850;2023-08-20T10:03:39;4.53;;;4.23;;
6985;SDS011;3533;51.246;6.850;2023-08-20T10:06:06;4.37;;;4.17;;
6985;SDS011;3533;51.246;6.850;2023-08-20T10:08:36;4.33;;;4.13;;
6985;SDS011;3533;51.246;6.850;2023-08-20T10:11:03;4.33;;;4.13;;
6985;SDS011;3533;51.246;6.850;2023-08-20T10:13:28;4.67;;;4.37;;
6985;SDS011;3533;51.246;6.850;2023-08-20T10:15:54;4.23;;;4.03;;
6985;SDS011;3533;51.246;6.850;2023-08-20T10:18:20;4.67;;;4.37;;
6985;SDS011;3533;51.246;6.850;2023-08-20T10:20:49;4.50;;;4.30;;
6985;SDS011;3533;51.246;6.850;2023-08-20T10:23:17;5.03;;;4.73;;
6985;SDS011;3533;51.246;6.850;2023-08-20T10:25:47;4.63;;;4.33;;
6985;SDS011;3533;51.246;6.850;2023-08-20T10:28:20;5.10;;;4.80;;
6985;SDS011;3533;51.246;6.850;2023-08-20T10:31:03;4.67;;;4.47;;
6985;SDS011;3533;51.246;6.850;2023-08-20T10:33:33;4.07;;;3.87;;
6985;SDS011;3533;51.246;6.850;2023-08-20T10:36:06;4.57;;;4.37;;
6985;SDS011;3533;51.246;6.850;2023-08-20T10:38:37;4.20;;;3.90;;
6985;SDS011;3533;51.246;6.850;2023-08-20T10:41:05;4.90;;;4.70;;
6985;SDS011;3533;51.246;6.850;2023-08-20T10:43:39;4.00;;;3.80;;
6985;SDS011;3533;51.246;6.850;2023-08-20T10:48:47;4.40;;;4.20;;
6985;SDS011;3533;51.246;6.850;2023-08-20T10:56:39;5.00;;;4.80;;
6985;SDS011;3533;51.246;6.850;2023-08-20T10:59:09;5.23;;;4.93;;
6985;SDS011;3533;51.246;6.850;2023-08-20T11:01:56;4.20;;;4.00;;
6985;SDS011;3533;51.246;6.850;2023-08-20T11:04:24;4.00;;;3.80;;
6985;SDS011;3533;51.246;6.850;2023-08-20T11:06:54;4.57;;;4.37;;
6985;SDS011;3533;51.246;6.850;2023-08-20T11:09:21;4.90;;;4.60;;
6985;SDS011;3533;51.246;6.850;2023-08-20T11:11:49;4.30;;;4.10;;
6985;SDS011;3533;51.246;6.850;2023-08-20T11:14:15;4.63;;;4.33;;
6985;SDS011;3533;51.246;6.850;2023-08-20T11:16:43;4.50;;;4.30;;
6985;SDS011;3533;51.246;6.850;2023-08-20T11:19:09;4.43;;;4.23;;
6985;SDS011;3533;51.246;6.850;2023-08-20T11:21:35;4.30;;;4.10;;
6985;SDS011;3533;51.246;6.850;2023-08-20T11:24:02;4.50;;;4.30;;
6985;SDS011;3533;51.246;6.850;2023-08-20T11:26:28;4.83;;;4.63;;
6985;SDS011;3533;51.246;6.850;2023-08-20T11:28:55;5.17;;;4.87;;
6985;SDS011;3533;51.246;6.850;2023-08-20T11:31:20;4.50;;;4.30;;
6985;SDS011;3533;51.246;6.850;2023-08-20T11:33:46;5.47;;;5.17;;
6985;SDS011;3533;51.246;6.850;2023-08-20T11:36:14;4.23;;;4.03;;
6985;SDS011;3533;51.246;6.850;2023-08-20T11:38:41;5.20;;;4.80;;
6985;SDS011;3533;51.246;6.850;2023-08-20T11:41:07;4.50;;;4.30;;
6985;SDS011;3533;51.246;6.850;2023-08-20T11:43:33;4.97;;;4.67;;
6985;SDS011;3533;51.246;6.850;2023-08-20T11:45:59;4.50;;;4.30;;
6985;SDS011;3533;51.246;6.850;2023-08-20T11:48:25;4.43;;;4.23;;
6985;SDS011;3533;51.246;6.850;2023-08-20T11:50:50;5.23;;;4.93;;
6985;SDS011;3533;51.246;6.850;2023-08-20T11:53:20;4.80;;;4.60;;
6985;SDS011;3533;51.246;6.850;2023-08-20T11:55:48;4.40;;;4.20;;
6985;SDS011;3533;51.246;6.850;2023-08-20T11:58:14;5.33;;;5.03;;
6985;SDS011;3533;51.246;6.850;2023-08-20T12:00:43;5.20;;;4.90;;
6985;SDS011;3533;51.246;6.850;2023-08-20T12:03:15;4.70;;;4.50;;
6985;SDS011;3533;51.246;6.850;2023-08-20T12:05:43;4.90;;;4.70;;
6985;SDS011;3533;51.246;6.850;2023-08-20T12:08:09;5.10;;;4.90;;
6985;SDS011;3533;51.246;6.850;2023-08-20T12:10:42;4.73;;;4.53;;
6985;SDS011;3533;51.246;6.850;2023-08-20T12:13:08;5.10;;;4.87;;
6985;SDS011;3533;51.246;6.850;2023-08-20T12:15:33;5.70;;;5.40;;
6985;SDS011;3533;51.246;6.850;2023-08-20T12:20:26;5.33;;;5.13;;
6985;SDS011;3533;51.246;6.850;2023-08-20T12:22:53;5.30;;;5.10;;
6985;SDS011;3533;51.246;6.850;2023-08-20T12:25:18;4.97;;;4.77;;
6985;SDS011;3533;51.246;6.850;2023-08-20T12:27:44;5.60;;;5.30;;
6985;SDS011;3533;51.246;6.850;2023-08-20T12:30:09;4.90;;;4.70;;
6985;SDS011;3533;51.246;6.850;2023-08-20T12:32:36;5.43;;;5.13;;
6985;SDS011;3533;51.246;6.850;2023-08-20T12:35:01;4.80;;;4.60;;
6985;SDS011;3533;51.246;6.850;2023-08-20T12:37:27;4.93;;;4.73;;
6985;SDS011;3533;51.246;6.850;2023-08-20T12:39:53;5.43;;;5.17;;
6985;SDS011;3533;51.246;6.850;2023-08-20T12:42:19;5.13;;;4.83;;
6985;SDS011;3533;51.246;6.850;2023-08-20T12:44:44;4.90;;;4.60;;
6985;SDS011;3533;51.246;6.850;2023-08-20T12:47:10;5.70;;;5.30;;
6985;SDS011;3533;51.246;6.850;2023-08-20T12:49:35;5.10;;;4.80;;
6985;SDS011;3533;51.246;6.850;2023-08-20T12:52:01;5.13;;;4.93;;
6985;SDS011;3533;51.246;6.850;2023-08-20T12:54:26;5.30;;;5.10;;
6985;SDS011;3533;51.246;6.850;2023-08-20T12:56:52;5.00;;;4.80;;
6985;SDS011;3533;51.246;6.850;2023-08-20T12:59:17;4.60;;;4.40;;
6985;SDS011;3533;51.246;6.850;2023-08-20T13:01:43;5.17;;;4.97;;
6985;SDS011;3533;51.246;6.850;2023-08-20T13:04:09;5.50;;;5.30;;
6985;SDS011;3533;51.246;6.850;2023-08-20T13:06:36;5.20;;;5.00;;
6985;SDS011;3533;51.246;6.850;2023-08-20T13:09:02;5.20;;;5.00;;
6985;SDS011;3533;51.246;6.850;2023-08-20T13:11:28;5.00;;;4.80;;
6985;SDS011;3533;51.246;6.850;2023-08-20T13:13:57;5.67;;;5.47;;
6985;SDS011;3533;51.246;6.850;2023-08-20T13:16:23;5.60;;;5.40;;
6985;SDS011;3533;51.246;6.850;2023-08-20T13:18:49;5.73;;;5.43;;
6985;SDS011;3533;51.246;6.850;2023-08-20T13:21:14;5.50;;;5.30;;
6985;SDS011;3533;51.246;6.850;2023-08-20T13:23:40;5.90;;;5.70;;
6985;SDS011;3533;51.246;6.850;2023-08-20T13:26:06;5.43;;;5.13;;
6985;SDS011;3533;51.246;6.850;2023-08-20T13:28:32;5.73;;;5.43;;
6985;SDS011;3533;51.246;6.850;2023-08-20T13:30:57;6.47;;;6.07;;
6985;SDS011;3533;51.246;6.850;2023-08-20T13:33:23;5.00;;;4.80;;
6985;SDS011;3533;51.246;6.850;2023-08-20T13:35:48;4.90;;;4.70;;
6985;SDS011;3533;51.246;6.850;2023-08-20T13:38:14;5.07;;;4.87;;
6985;SDS011;3533;51.246;6.850;2023-08-20T13:40:40;5.77;;;5.57;;
6985;SDS011;3533;51.246;6.850;2023-08-20T13:43:05;5.90;;;5.60;;
6985;SDS011;3533;51.246;6.850;2023-08-20T13:45:31;4.93;;;4.73;;
6985;SDS011;3533;51.246;6.850;2023-08-20T13:47:57;5.20;;;5.00;;
6985;SDS011;3533;51.246;6.850;2023-08-20T13:50:22;5.57;;;5.27;;
6985;SDS011;3533;51.246;6.850;2023-08-20T13:52:48;5.13;;;4.93;;
6985;SDS011;3533;51.246;6.850;2023-08-20T13:55:14;5.20;;;5.00;;
6985;SDS011;3533;51.246;6.850;2023-08-20T13:57:40;5.00;;;4.80;;
6985;SDS011;3533;51.246;6.850;2023-08-20T14:00:06;5.40;;;5.20;;
6985;SDS011;3533;51.246;6.850;2023-08-20T14:02:37;4.90;;;4.70;;
6985;SDS011;3533;51.246;6.850;2023-08-20T14:05:03;5.47;;;5.17;;
6985;SDS011;3533;51.246;6.850;2023-08-20T14:07:29;5.17;;;4.93;;
6985;SDS011;3533;51.246;6.850;2023-08-20T14:09:55;4.70;;;4.50;;
6985;SDS011;3533;51.246;6.850;2023-08-20T14:12:20;5.00;;;4.80;;
6985;SDS011;3533;51.246;6.850;2023-08-20T14:14:46;4.90;;;4.70;;
6985;SDS011;3533;51.246;6.850;2023-08-20T14:17:11;5.47;;;5.20;;
6985;SDS011;3533;51.246;6.850;2023-08-20T14:19:37;5.10;;;4.90;;
6985;SDS011;3533;51.246;6.850;2023-08-20T14:22:02;5.00;;;4.80;;
6985;SDS011;3533;51.246;6.850;2023-08-20T14:24:28;5.47;;;5.27;;
6985;SDS011;3533;51.246;6.850;2023-08-20T14:26:54;5.80;;;4.50;;
6985;SDS011;3533;51.246;6.850;2023-08-20T14:29:19;4.90;;;4.60;;
6985;SDS011;3533;51.246;6.850;2023-08-20T14:31:45;4.93;;;4.73;;
6985;SDS011;3533;51.246;6.850;2023-08-20T14:34:10;5.20;;;5.00;;
6985;SDS011;3533;51.246;6.850;2023-08-20T14:36:36;5.83;;;5.53;;
6985;SDS011;3533;51.246;6.850;2023-08-20T14:39:02;4.87;;;4.67;;
6985;SDS011;3533;51.246;6.850;2023-08-20T14:41:29;5.13;;;4.90;;
6985;SDS011;3533;51.246;6.850;2023-08-20T14:43:55;5.70;;;5.40;;
6985;SDS011;3533;51.246;6.850;2023-08-20T14:46:20;4.33;;;4.13;;
6985;SDS011;3533;51.246;6.850;2023-08-20T14:48:46;5.30;;;5.00;;
6985;SDS011;3533;51.246;6.850;2023-08-20T14:51:11;4.70;;;4.50;;
6985;SDS011;3533;51.246;6.850;2023-08-20T14:53:37;4.67;;;4.47;;
6985;SDS011;3533;51.246;6.850;2023-08-20T14:56:03;5.07;;;4.87;;
6985;SDS011;3533;51.246;6.850;2023-08-20T14:58:29;4.80;;;4.50;;
6985;SDS011;3533;51.246;6.850;2023-08-20T15:00:54;5.10;;;4.90;;
6985;SDS011;3533;51.246;6.850;2023-08-20T15:03:20;4.87;;;4.67;;
6985;SDS011;3533;51.246;6.850;2023-08-20T15:05:46;5.40;;;5.20;;
6985;SDS011;3533;51.246;6.850;2023-08-20T15:08:11;4.90;;;4.60;;
6985;SDS011;3533;51.246;6.850;2023-08-20T15:10:38;4.57;;;4.37;;
6985;SDS011;3533;51.246;6.850;2023-08-20T15:13:03;4.83;;;4.63;;
6985;SDS011;3533;51.246;6.850;2023-08-20T15:15:29;4.83;;;4.63;;
6985;SDS011;3533;51.246;6.850;2023-08-20T15:17:55;4.37;;;4.17;;
6985;SDS011;3533;51.246;6.850;2023-08-20T15:20:21;4.70;;;4.40;;
6985;SDS011;3533;51.246;6.850;2023-08-20T15:22:47;4.40;;;4.20;;
6985;SDS011;3533;51.246;6.850;2023-08-20T15:25:12;5.00;;;4.60;;
6985;SDS011;3533;51.246;6.850;2023-08-20T15:27:40;4.07;;;3.87;;
6985;SDS011;3533;51.246;6.850;2023-08-20T15:30:05;4.60;;;4.40;;